sensor_id;sensor_type;location;lat;lon;timestamp;pressure;altitude;pressure_sealevel;temperature;humidity
62592;BME280;48659;41.622;2.276;2023-11-19T00:00:12;100530.05;;;10.13;56.16
62592;BME280;48659;41.622;2.276;2023-11-19T00:02:40;100524.35;;;11.79;52.24
62592;BME280;48659;41.622;2.276;2023-11-19T00:05:17;100523.51;;;12.09;52.45
62592;BME280;48659;41.622;2.276;2023-11-19T00:07:45;100516.07;;;11.16;51.48
62592;BME280;48659;41.622;2.276;2023-11-19T00:10:19;100508.93;;;11.85;51.87
62592;BME280;48659;41.622;2.276;2023-11-19T00:12:48;100508.34;;;12.70;51.35
62592;BME280;48659;41.622;2.276;2023-11-19T00:15:17;100507.99;;;11.78;52.01
62592;BME280;48659;41.622;2.276;2023-11-19T00:17:46;100505.93;;;12.51;52.33
62592;BME280;48659;41.622;2.276;2023-11-19T00:20:16;100502.83;;;12.41;51.57
62592;BME280;48659;41.622;2.276;2023-11-19T00:22:44;100507.48;;;11.14;54.03
62592;BME280;48659;41.622;2.276;2023-11-19T00:25:12;100503.40;;;11.94;53.32
62592;BME280;48659;41.622;2.276;2023-11-19T00:27:40;100499.86;;;12.68;52.12
62592;BME280;48659;41.622;2.276;2023-11-19T00:30:08;100497.73;;;12.90;52.41
62592;BME280;48659;41.622;2.276;2023-11-19T00:32:35;100499.98;;;11.61;53.77
62592;BME280;48659;41.622;2.276;2023-11-19T00:35:04;100496.21;;;11.70;52.48
62592;BME280;48659;41.622;2.276;2023-11-19T00:37:32;100496.32;;;12.41;51.81
62592;BME280;48659;41.622;2.276;2023-11-19T00:39:59;100492.32;;;12.14;52.82
62592;BME280;48659;41.622;2.276;2023-11-19T00:42:26;100486.51;;;12.04;52.61
62592;BME280;48659;41.622;2.276;2023-11-19T00:44:54;100487.90;;;12.60;52.42
62592;BME280;48659;41.622;2.276;2023-11-19T00:47:21;100489.99;;;12.17;53.11
62592;BME280;48659;41.622;2.276;2023-11-19T00:49:49;100484.04;;;11.15;53.24
62592;BME280;48659;41.622;2.276;2023-11-19T00:52:17;100484.22;;;11.71;53.76
62592;BME280;48659;41.622;2.276;2023-11-19T00:54:45;100482.16;;;12.45;53.32
62592;BME280;48659;41.622;2.276;2023-11-19T00:57:13;100481.24;;;12.24;52.31
62592;BME280;48659;41.622;2.276;2023-11-19T00:59:42;100479.28;;;11.34;52.58
62592;BME280;48659;41.622;2.276;2023-11-19T01:02:10;100477.46;;;12.19;52.18
62592;BME280;48659;41.622;2.276;2023-11-19T01:04:38;100473.69;;;12.22;52.34
62592;BME280;48659;41.622;2.276;2023-11-19T01:07:06;100470.48;;;12.43;51.75
62592;BME280;48659;41.622;2.276;2023-11-19T01:09:34;100473.93;;;11.68;51.48
62592;BME280;48659;41.622;2.276;2023-11-19T01:12:01;100475.23;;;12.01;51.71
62592;BME280;48659;41.622;2.276;2023-11-19T01:14:29;100475.76;;;12.13;52.29
62592;BME280;48659;41.622;2.276;2023-11-19T01:16:57;100483.52;;;10.49;56.59
62592;BME280;48659;41.622;2.276;2023-11-19T01:19:25;100479.39;;;10.08;56.13
62592;BME280;48659;41.622;2.276;2023-11-19T01:21:53;100478.02;;;11.57;54.07
62592;BME280;48659;41.622;2.276;2023-11-19T01:24:20;100478.18;;;9.03;56.90
62592;BME280;48659;41.622;2.276;2023-11-19T01:26:47;100473.76;;;11.33;55.07
62592;BME280;48659;41.622;2.276;2023-11-19T01:29:16;100474.86;;;10.44;55.94
62592;BME280;48659;41.622;2.276;2023-11-19T01:31:45;100472.10;;;9.10;57.70
62592;BME280;48659;41.622;2.276;2023-11-19T01:34:13;100472.33;;;11.17;55.34
62592;BME280;48659;41.622;2.276;2023-11-19T01:36:40;100467.90;;;10.94;56.11
62592;BME280;48659;41.622;2.276;2023-11-19T01:39:07;100471.51;;;10.96;56.84
62592;BME280;48659;41.622;2.276;2023-11-19T01:41:36;100470.68;;;10.81;54.88
62592;BME280;48659;41.622;2.276;2023-11-19T01:44:04;100472.88;;;11.90;54.41
62592;BME280;48659;41.622;2.276;2023-11-19T01:46:33;100476.35;;;12.07;54.01
62592;BME280;48659;41.622;2.276;2023-11-19T01:49:02;100485.43;;;11.78;54.72
62592;BME280;48659;41.622;2.276;2023-11-19T01:51:29;100479.62;;;11.82;54.07
62592;BME280;48659;41.622;2.276;2023-11-19T01:53:57;100474.04;;;11.95;53.49
62592;BME280;48659;41.622;2.276;2023-11-19T01:56:26;100474.42;;;11.30;53.71
62592;BME280;48659;41.622;2.276;2023-11-19T01:58:55;100475.13;;;11.70;54.14
62592;BME280;48659;41.622;2.276;2023-11-19T02:01:23;100476.67;;;10.46;53.39
62592;BME280;48659;41.622;2.276;2023-11-19T02:03:51;100477.71;;;10.91;52.59
62592;BME280;48659;41.622;2.276;2023-11-19T02:06:19;100479.56;;;11.02;54.37
62592;BME280;48659;41.622;2.276;2023-11-19T02:08:47;100473.28;;;11.22;52.60
62592;BME280;48659;41.622;2.276;2023-11-19T02:11:15;100478.64;;;10.66;53.64
62592;BME280;48659;41.622;2.276;2023-11-19T02:13:42;100475.86;;;11.28;52.65
62592;BME280;48659;41.622;2.276;2023-11-19T02:16:10;100480.26;;;10.27;54.80
62592;BME280;48659;41.622;2.276;2023-11-19T02:18:37;100485.68;;;8.59;59.51
62592;BME280;48659;41.622;2.276;2023-11-19T02:21:05;100485.48;;;9.08;59.11
62592;BME280;48659;41.622;2.276;2023-11-19T02:23:34;100486.56;;;8.54;59.43
62592;BME280;48659;41.622;2.276;2023-11-19T02:26:09;100486.34;;;9.10;59.95
62592;BME280;48659;41.622;2.276;2023-11-19T02:28:39;100481.01;;;10.02;56.42
62592;BME280;48659;41.622;2.276;2023-11-19T02:31:08;100480.63;;;11.17;56.24
62592;BME280;48659;41.622;2.276;2023-11-19T02:33:36;100480.07;;;10.05;55.64
62592;BME280;48659;41.622;2.276;2023-11-19T02:36:05;100480.14;;;10.73;56.06
62592;BME280;48659;41.622;2.276;2023-11-19T02:38:32;100479.07;;;9.60;57.73
62592;BME280;48659;41.622;2.276;2023-11-19T02:41:00;100485.61;;;8.13;63.16
62592;BME280;48659;41.622;2.276;2023-11-19T02:43:31;100476.64;;;9.48;58.52
62592;BME280;48659;41.622;2.276;2023-11-19T02:46:01;100478.14;;;8.48;59.79
62592;BME280;48659;41.622;2.276;2023-11-19T02:48:31;100466.32;;;10.47;56.11
62592;BME280;48659;41.622;2.276;2023-11-19T02:50:58;100463.23;;;11.18;55.15
62592;BME280;48659;41.622;2.276;2023-11-19T02:53:26;100456.38;;;11.14;53.95
62592;BME280;48659;41.622;2.276;2023-11-19T02:55:53;100460.97;;;11.10;54.74
62592;BME280;48659;41.622;2.276;2023-11-19T02:58:20;100458.79;;;10.37;55.36
62592;BME280;48659;41.622;2.276;2023-11-19T03:00:48;100457.91;;;10.49;54.35
62592;BME280;48659;41.622;2.276;2023-11-19T03:03:16;100456.81;;;11.26;53.30
62592;BME280;48659;41.622;2.276;2023-11-19T03:05:43;100459.69;;;11.51;53.63
62592;BME280;48659;41.622;2.276;2023-11-19T03:08:11;100455.55;;;10.29;54.78
62592;BME280;48659;41.622;2.276;2023-11-19T03:10:38;100450.58;;;9.80;55.70
62592;BME280;48659;41.622;2.276;2023-11-19T03:13:05;100447.30;;;10.81;54.36
62592;BME280;48659;41.622;2.276;2023-11-19T03:15:38;100437.99;;;10.48;54.21
62592;BME280;48659;41.622;2.276;2023-11-19T03:18:06;100440.65;;;10.62;54.59
62592;BME280;48659;41.622;2.276;2023-11-19T03:20:34;100438.05;;;10.42;53.22
62592;BME280;48659;41.622;2.276;2023-11-19T03:23:02;100437.10;;;10.06;53.55
62592;BME280;48659;41.622;2.276;2023-11-19T03:25:32;100441.42;;;10.66;52.92
62592;BME280;48659;41.622;2.276;2023-11-19T03:28:00;100438.98;;;9.90;53.29
62592;BME280;48659;41.622;2.276;2023-11-19T03:30:32;100434.89;;;10.55;53.20
62592;BME280;48659;41.622;2.276;2023-11-19T03:32:59;100434.78;;;11.32;53.63
62592;BME280;48659;41.622;2.276;2023-11-19T03:35:27;100434.83;;;10.71;53.62
62592;BME280;48659;41.622;2.276;2023-11-19T03:37:54;100434.51;;;11.15;54.22
62592;BME280;48659;41.622;2.276;2023-11-19T03:40:35;100433.47;;;9.25;57.35
62592;BME280;48659;41.622;2.276;2023-11-19T03:43:03;100430.40;;;7.60;59.82
62592;BME280;48659;41.622;2.276;2023-11-19T03:45:31;100423.44;;;9.72;56.53
62592;BME280;48659;41.622;2.276;2023-11-19T03:47:58;100420.65;;;9.85;55.52
62592;BME280;48659;41.622;2.276;2023-11-19T03:50:34;100421.14;;;9.94;55.46
62592;BME280;48659;41.622;2.276;2023-11-19T03:53:02;100419.81;;;9.43;55.16
62592;BME280;48659;41.622;2.276;2023-11-19T03:55:31;100420.20;;;9.61;55.02
62592;BME280;48659;41.622;2.276;2023-11-19T03:57:58;100430.57;;;8.61;59.08
62592;BME280;48659;41.622;2.276;2023-11-19T04:00:33;100421.54;;;9.67;55.91
62592;BME280;48659;41.622;2.276;2023-11-19T04:02:59;100420.67;;;10.76;55.03
62592;BME280;48659;41.622;2.276;2023-11-19T04:05:27;100420.33;;;10.74;54.22
62592;BME280;48659;41.622;2.276;2023-11-19T04:07:54;100419.29;;;10.79;54.59
62592;BME280;48659;41.622;2.276;2023-11-19T04:10:34;100414.09;;;10.80;53.67
62592;BME280;48659;41.622;2.276;2023-11-19T04:13:02;100415.39;;;10.11;53.44
62592;BME280;48659;41.622;2.276;2023-11-19T04:15:30;100415.33;;;10.89;52.57
62592;BME280;48659;41.622;2.276;2023-11-19T04:17:57;100417.32;;;11.11;53.47
62592;BME280;48659;41.622;2.276;2023-11-19T04:20:25;100419.64;;;10.49;53.71
62592;BME280;48659;41.622;2.276;2023-11-19T04:22:53;100418.71;;;10.80;53.57
62592;BME280;48659;41.622;2.276;2023-11-19T04:25:20;100419.52;;;10.96;53.97
62592;BME280;48659;41.622;2.276;2023-11-19T04:27:47;100415.45;;;10.47;52.65
62592;BME280;48659;41.622;2.276;2023-11-19T04:30:14;100419.00;;;10.40;52.71
62592;BME280;48659;41.622;2.276;2023-11-19T04:32:42;100417.34;;;10.59;52.74
62592;BME280;48659;41.622;2.276;2023-11-19T04:35:10;100419.35;;;10.45;53.07
62592;BME280;48659;41.622;2.276;2023-11-19T04:37:38;100419.95;;;10.42;53.39
62592;BME280;48659;41.622;2.276;2023-11-19T04:40:06;100420.81;;;10.86;53.70
62592;BME280;48659;41.622;2.276;2023-11-19T04:42:34;100418.75;;;10.04;54.19
62592;BME280;48659;41.622;2.276;2023-11-19T04:45:02;100418.33;;;9.13;55.52
62592;BME280;48659;41.622;2.276;2023-11-19T04:47:31;100420.26;;;9.94;54.23
62592;BME280;48659;41.622;2.276;2023-11-19T04:49:59;100424.71;;;10.58;53.55
62592;BME280;48659;41.622;2.276;2023-11-19T04:52:27;100424.10;;;10.06;53.47
62592;BME280;48659;41.622;2.276;2023-11-19T04:54:54;100423.78;;;9.68;52.95
62592;BME280;48659;41.622;2.276;2023-11-19T04:57:22;100424.30;;;10.55;54.14
62592;BME280;48659;41.622;2.276;2023-11-19T04:59:50;100425.78;;;9.54;54.01
62592;BME280;48659;41.622;2.276;2023-11-19T05:02:17;100428.68;;;8.53;57.16
62592;BME280;48659;41.622;2.276;2023-11-19T05:04:45;100425.83;;;8.66;56.42
62592;BME280;48659;41.622;2.276;2023-11-19T05:07:13;100424.76;;;10.61;53.91
62592;BME280;48659;41.622;2.276;2023-11-19T05:09:41;100424.96;;;9.97;53.60
62592;BME280;48659;41.622;2.276;2023-11-19T05:12:08;100431.74;;;8.59;57.65
62592;BME280;48659;41.622;2.276;2023-11-19T05:14:36;100425.56;;;9.94;54.01
62592;BME280;48659;41.622;2.276;2023-11-19T05:17:03;100434.20;;;9.11;58.95
62592;BME280;48659;41.622;2.276;2023-11-19T05:19:31;100424.51;;;9.28;55.82
62592;BME280;48659;41.622;2.276;2023-11-19T05:21:58;100425.00;;;9.68;55.23
62592;BME280;48659;41.622;2.276;2023-11-19T05:24:26;100422.55;;;9.96;54.39
62592;BME280;48659;41.622;2.276;2023-11-19T05:26:54;100422.79;;;10.27;54.01
62592;BME280;48659;41.622;2.276;2023-11-19T05:29:22;100421.10;;;10.49;54.13
62592;BME280;48659;41.622;2.276;2023-11-19T05:31:50;100418.98;;;9.35;54.45
62592;BME280;48659;41.622;2.276;2023-11-19T05:34:18;100415.08;;;11.65;51.26
62592;BME280;48659;41.622;2.276;2023-11-19T05:36:46;100417.17;;;10.68;51.93
62592;BME280;48659;41.622;2.276;2023-11-19T05:39:13;100419.20;;;10.38;52.48
62592;BME280;48659;41.622;2.276;2023-11-19T05:41:41;100418.08;;;10.19;52.68
62592;BME280;48659;41.622;2.276;2023-11-19T05:44:09;100415.09;;;10.96;52.90
62592;BME280;48659;41.622;2.276;2023-11-19T05:46:36;100414.79;;;9.75;52.69
62592;BME280;48659;41.622;2.276;2023-11-19T05:49:04;100416.51;;;8.98;53.43
62592;BME280;48659;41.622;2.276;2023-11-19T05:51:35;100410.72;;;10.70;51.87
62592;BME280;48659;41.622;2.276;2023-11-19T05:54:03;100415.91;;;9.92;52.36
62592;BME280;48659;41.622;2.276;2023-11-19T05:56:32;100413.52;;;9.54;53.72
62592;BME280;48659;41.622;2.276;2023-11-19T05:58:59;100410.48;;;10.46;53.54
62592;BME280;48659;41.622;2.276;2023-11-19T06:01:32;100413.04;;;9.83;53.44
62592;BME280;48659;41.622;2.276;2023-11-19T06:04:00;100410.94;;;10.80;52.83
62592;BME280;48659;41.622;2.276;2023-11-19T06:06:28;100406.90;;;10.04;53.71
62592;BME280;48659;41.622;2.276;2023-11-19T06:08:57;100410.40;;;9.53;53.42
62592;BME280;48659;41.622;2.276;2023-11-19T06:11:24;100413.24;;;10.41;52.99
62592;BME280;48659;41.622;2.276;2023-11-19T06:13:52;100411.42;;;9.63;53.53
62592;BME280;48659;41.622;2.276;2023-11-19T06:16:19;100410.85;;;10.64;53.89
62592;BME280;48659;41.622;2.276;2023-11-19T06:18:47;100412.97;;;9.41;53.69
62592;BME280;48659;41.622;2.276;2023-11-19T06:21:14;100412.93;;;10.24;53.74
62592;BME280;48659;41.622;2.276;2023-11-19T06:23:42;100417.48;;;9.90;53.22
62592;BME280;48659;41.622;2.276;2023-11-19T06:26:09;100417.96;;;10.62;52.78
62592;BME280;48659;41.622;2.276;2023-11-19T06:28:37;100419.78;;;10.50;52.54
62592;BME280;48659;41.622;2.276;2023-11-19T06:31:05;100424.42;;;10.48;53.19
62592;BME280;48659;41.622;2.276;2023-11-19T06:33:33;100427.66;;;10.51;51.75
62592;BME280;48659;41.622;2.276;2023-11-19T06:36:00;100429.29;;;10.67;52.82
62592;BME280;48659;41.622;2.276;2023-11-19T06:38:28;100427.27;;;10.47;52.87
62592;BME280;48659;41.622;2.276;2023-11-19T06:40:56;100427.40;;;10.04;52.19
62592;BME280;48659;41.622;2.276;2023-11-19T06:43:32;100427.88;;;10.12;52.62
62592;BME280;48659;41.622;2.276;2023-11-19T06:45:59;100427.87;;;9.49;51.95
62592;BME280;48659;41.622;2.276;2023-11-19T06:48:31;100428.17;;;11.20;50.51
62592;BME280;48659;41.622;2.276;2023-11-19T06:50:59;100432.05;;;10.89;51.31
62592;BME280;48659;41.622;2.276;2023-11-19T06:53:27;100436.19;;;10.76;51.51
62592;BME280;48659;41.622;2.276;2023-11-19T06:55:56;100443.51;;;9.80;52.16
62592;BME280;48659;41.622;2.276;2023-11-19T06:58:32;100441.38;;;10.56;50.89
62592;BME280;48659;41.622;2.276;2023-11-19T07:01:06;100441.97;;;10.60;50.31
62592;BME280;48659;41.622;2.276;2023-11-19T07:03:35;100437.25;;;10.91;50.17
62592;BME280;48659;41.622;2.276;2023-11-19T07:06:02;100439.36;;;11.91;50.36
62592;BME280;48659;41.622;2.276;2023-11-19T07:08:31;100440.35;;;10.19;52.05
62592;BME280;48659;41.622;2.276;2023-11-19T07:11:03;100439.96;;;10.85;52.20
62592;BME280;48659;41.622;2.276;2023-11-19T07:13:31;100447.76;;;10.07;51.90
62592;BME280;48659;41.622;2.276;2023-11-19T07:15:58;100450.00;;;11.57;49.85
62592;BME280;48659;41.622;2.276;2023-11-19T07:18:26;100452.49;;;11.62;49.73
62592;BME280;48659;41.622;2.276;2023-11-19T07:20:54;100460.80;;;10.53;50.93
62592;BME280;48659;41.622;2.276;2023-11-19T07:23:21;100460.06;;;12.22;49.92
62592;BME280;48659;41.622;2.276;2023-11-19T07:25:49;100465.29;;;12.14;50.38
62592;BME280;48659;41.622;2.276;2023-11-19T07:28:16;100464.90;;;11.78;49.82
62592;BME280;48659;41.622;2.276;2023-11-19T07:30:43;100469.74;;;11.76;48.79
62592;BME280;48659;41.622;2.276;2023-11-19T07:33:11;100475.20;;;12.56;48.80
62592;BME280;48659;41.622;2.276;2023-11-19T07:35:38;100480.09;;;11.90;48.17
62592;BME280;48659;41.622;2.276;2023-11-19T07:38:05;100479.71;;;12.55;47.49
62592;BME280;48659;41.622;2.276;2023-11-19T07:40:33;100487.09;;;12.65;47.27
62592;BME280;48659;41.622;2.276;2023-11-19T07:43:01;100490.03;;;13.24;47.30
62592;BME280;48659;41.622;2.276;2023-11-19T07:45:29;100490.78;;;13.47;46.32
62592;BME280;48659;41.622;2.276;2023-11-19T07:47:57;100496.88;;;13.08;46.04
62592;BME280;48659;41.622;2.276;2023-11-19T07:50:34;100497.59;;;13.73;45.67
62592;BME280;48659;41.622;2.276;2023-11-19T07:53:02;100499.01;;;13.57;45.81
62592;BME280;48659;41.622;2.276;2023-11-19T07:55:29;100502.18;;;13.15;46.13
62592;BME280;48659;41.622;2.276;2023-11-19T07:57:57;100508.82;;;13.67;46.51
62592;BME280;48659;41.622;2.276;2023-11-19T08:00:24;100505.61;;;13.64;46.36
62592;BME280;48659;41.622;2.276;2023-11-19T08:02:51;100508.33;;;13.27;46.85
62592;BME280;48659;41.622;2.276;2023-11-19T08:05:19;100510.82;;;13.68;46.96
62592;BME280;48659;41.622;2.276;2023-11-19T08:07:47;100514.88;;;13.65;46.58
62592;BME280;48659;41.622;2.276;2023-11-19T08:10:14;100515.26;;;13.43;46.00
62592;BME280;48659;41.622;2.276;2023-11-19T08:12:42;100518.78;;;13.45;46.57
62592;BME280;48659;41.622;2.276;2023-11-19T08:15:09;100522.49;;;13.45;46.58
62592;BME280;48659;41.622;2.276;2023-11-19T08:17:38;100520.04;;;13.09;47.04
62592;BME280;48659;41.622;2.276;2023-11-19T08:20:07;100519.48;;;14.12;46.57
62592;BME280;48659;41.622;2.276;2023-11-19T08:22:37;100518.66;;;14.14;45.38
62592;BME280;48659;41.622;2.276;2023-11-19T08:25:05;100521.92;;;14.82;44.90
62592;BME280;48659;41.622;2.276;2023-11-19T08:27:32;100520.98;;;14.26;45.14
62592;BME280;48659;41.622;2.276;2023-11-19T08:30:00;100521.49;;;14.55;44.71
62592;BME280;48659;41.622;2.276;2023-11-19T08:32:28;100519.43;;;14.50;44.27
62592;BME280;48659;41.622;2.276;2023-11-19T08:34:55;100520.52;;;14.88;44.45
62592;BME280;48659;41.622;2.276;2023-11-19T08:37:35;100522.28;;;14.59;44.18
62592;BME280;48659;41.622;2.276;2023-11-19T08:40:03;100522.87;;;13.69;44.05
62592;BME280;48659;41.622;2.276;2023-11-19T08:42:31;100522.43;;;14.52;44.20
62592;BME280;48659;41.622;2.276;2023-11-19T08:44:59;100522.91;;;14.47;44.60
62592;BME280;48659;41.622;2.276;2023-11-19T08:47:27;100521.31;;;14.69;44.15
62592;BME280;48659;41.622;2.276;2023-11-19T08:49:55;100521.61;;;15.76;43.34
62592;BME280;48659;41.622;2.276;2023-11-19T08:52:41;100521.74;;;15.52;44.21
62592;BME280;48659;41.622;2.276;2023-11-19T08:55:08;100519.86;;;14.63;42.79
62592;BME280;48659;41.622;2.276;2023-11-19T08:57:36;100521.42;;;15.26;42.50
62592;BME280;48659;41.622;2.276;2023-11-19T09:00:03;100523.34;;;16.06;42.93
62592;BME280;48659;41.622;2.276;2023-11-19T09:02:31;100526.52;;;15.16;42.77
62592;BME280;48659;41.622;2.276;2023-11-19T09:04:58;100527.98;;;15.92;42.66
62592;BME280;48659;41.622;2.276;2023-11-19T09:07:32;100526.30;;;15.71;42.17
62592;BME280;48659;41.622;2.276;2023-11-19T09:10:00;100526.59;;;15.29;41.84
62592;BME280;48659;41.622;2.276;2023-11-19T09:12:28;100527.77;;;15.55;41.89
62592;BME280;48659;41.622;2.276;2023-11-19T09:14:55;100523.94;;;16.80;40.62
62592;BME280;48659;41.622;2.276;2023-11-19T09:17:23;100521.72;;;17.12;40.39
62592;BME280;48659;41.622;2.276;2023-11-19T09:19:51;100520.58;;;16.38;40.76
62592;BME280;48659;41.622;2.276;2023-11-19T09:22:19;100518.65;;;16.10;40.48
62592;BME280;48659;41.622;2.276;2023-11-19T09:24:47;100518.15;;;17.23;39.72
62592;BME280;48659;41.622;2.276;2023-11-19T09:27:15;100515.66;;;16.88;39.94
62592;BME280;48659;41.622;2.276;2023-11-19T09:29:47;100516.56;;;17.80;39.54
62592;BME280;48659;41.622;2.276;2023-11-19T09:32:15;100508.63;;;17.50;39.91
62592;BME280;48659;41.622;2.276;2023-11-19T09:34:47;100508.56;;;16.27;40.00
62592;BME280;48659;41.622;2.276;2023-11-19T09:37:15;100508.91;;;16.41;39.93
62592;BME280;48659;41.622;2.276;2023-11-19T09:39:42;100512.40;;;17.04;40.01
62592;BME280;48659;41.622;2.276;2023-11-19T09:42:10;100515.83;;;16.65;39.40
62592;BME280;48659;41.622;2.276;2023-11-19T09:44:39;100513.22;;;17.05;38.73
62592;BME280;48659;41.622;2.276;2023-11-19T09:47:08;100511.54;;;17.73;37.79
62592;BME280;48659;41.622;2.276;2023-11-19T09:49:37;100514.78;;;17.74;38.12
62592;BME280;48659;41.622;2.276;2023-11-19T09:52:05;100519.69;;;17.72;38.90
62592;BME280;48659;41.622;2.276;2023-11-19T09:54:33;100515.52;;;17.65;38.41
62592;BME280;48659;41.622;2.276;2023-11-19T09:57:02;100513.64;;;17.76;38.41
62592;BME280;48659;41.622;2.276;2023-11-19T09:59:30;100517.13;;;18.31;37.73
62592;BME280;48659;41.622;2.276;2023-11-19T10:01:59;100513.35;;;17.85;37.14
62592;BME280;48659;41.622;2.276;2023-11-19T10:04:34;100508.10;;;18.95;36.48
62592;BME280;48659;41.622;2.276;2023-11-19T10:07:02;100502.73;;;19.58;36.36
62592;BME280;48659;41.622;2.276;2023-11-19T10:09:32;100506.13;;;18.71;36.86
62592;BME280;48659;41.622;2.276;2023-11-19T10:12:00;100511.55;;;17.08;39.24
62592;BME280;48659;41.622;2.276;2023-11-19T10:14:28;100502.91;;;19.01;37.22
62592;BME280;48659;41.622;2.276;2023-11-19T10:16:57;100500.98;;;18.51;35.64
62592;BME280;48659;41.622;2.276;2023-11-19T10:19:32;100499.49;;;18.90;35.56
62592;BME280;48659;41.622;2.276;2023-11-19T10:22:04;100500.05;;;18.58;35.68
62592;BME280;48659;41.622;2.276;2023-11-19T10:24:32;100494.45;;;19.46;34.55
62592;BME280;48659;41.622;2.276;2023-11-19T10:27:00;100492.08;;;20.42;36.68
62592;BME280;48659;41.622;2.276;2023-11-19T10:29:32;100493.22;;;19.99;34.60
62592;BME280;48659;41.622;2.276;2023-11-19T10:32:00;100489.93;;;20.11;35.79
62592;BME280;48659;41.622;2.276;2023-11-19T10:34:28;100483.54;;;19.67;35.94
62592;BME280;48659;41.622;2.276;2023-11-19T10:36:55;100480.67;;;18.11;35.41
62592;BME280;48659;41.622;2.276;2023-11-19T10:39:23;100481.31;;;18.74;35.38
62592;BME280;48659;41.622;2.276;2023-11-19T10:42:15;100479.99;;;19.50;34.81
62592;BME280;48659;41.622;2.276;2023-11-19T10:44:43;100480.06;;;19.66;33.68
62592;BME280;48659;41.622;2.276;2023-11-19T10:47:16;100474.53;;;21.04;33.88
62592;BME280;48659;41.622;2.276;2023-11-19T10:49:46;100469.29;;;19.84;33.73
62592;BME280;48659;41.622;2.276;2023-11-19T10:52:17;100463.86;;;20.66;33.67
62592;BME280;48659;41.622;2.276;2023-11-19T10:54:49;100461.07;;;20.66;33.53
62592;BME280;48659;41.622;2.276;2023-11-19T10:57:20;100460.29;;;19.92;35.66
62592;BME280;48659;41.622;2.276;2023-11-19T10:59:49;100455.46;;;20.46;34.41
62592;BME280;48659;41.622;2.276;2023-11-19T11:02:24;100454.07;;;20.06;34.26
62592;BME280;48659;41.622;2.276;2023-11-19T11:04:53;100450.71;;;20.40;33.95
62592;BME280;48659;41.622;2.276;2023-11-19T11:07:22;100449.14;;;20.83;33.97
62592;BME280;48659;41.622;2.276;2023-11-19T11:09:51;100444.72;;;20.87;34.03
62592;BME280;48659;41.622;2.276;2023-11-19T11:12:22;100449.25;;;18.88;35.87
62592;BME280;48659;41.622;2.276;2023-11-19T11:14:51;100440.87;;;20.79;34.48
62592;BME280;48659;41.622;2.276;2023-11-19T11:17:20;100437.60;;;19.83;33.65
62592;BME280;48659;41.622;2.276;2023-11-19T11:19:51;100436.04;;;20.40;33.24
62592;BME280;48659;41.622;2.276;2023-11-19T11:22:21;100432.60;;;20.56;33.55
62592;BME280;48659;41.622;2.276;2023-11-19T11:25:06;100426.49;;;20.83;32.62
62592;BME280;48659;41.622;2.276;2023-11-19T11:27:51;100420.56;;;20.33;32.74
62592;BME280;48659;41.622;2.276;2023-11-19T11:30:41;100412.82;;;21.83;32.14
62592;BME280;48659;41.622;2.276;2023-11-19T11:33:26;100411.42;;;19.93;33.57
62592;BME280;48659;41.622;2.276;2023-11-19T11:36:08;100410.08;;;21.51;33.26
62592;BME280;48659;41.622;2.276;2023-11-19T11:38:40;100405.44;;;21.00;32.92
62592;BME280;48659;41.622;2.276;2023-11-19T11:41:24;100403.36;;;21.22;32.27
62592;BME280;48659;41.622;2.276;2023-11-19T11:43:52;100401.07;;;21.51;33.90
62592;BME280;48659;41.622;2.276;2023-11-19T11:47:25;100399.77;;;21.34;33.98
62592;BME280;48659;41.622;2.276;2023-11-19T11:49:53;100391.88;;;21.56;34.07
62592;BME280;48659;41.622;2.276;2023-11-19T11:52:21;100387.91;;;21.52;33.91
62592;BME280;48659;41.622;2.276;2023-11-19T11:54:49;100383.02;;;21.48;32.69
62592;BME280;48659;41.622;2.276;2023-11-19T11:57:17;100385.09;;;19.79;34.10
62592;BME280;48659;41.622;2.276;2023-11-19T11:59:47;100380.22;;;21.69;32.74
62592;BME280;48659;41.622;2.276;2023-11-19T12:02:15;100379.42;;;20.91;33.07
62592;BME280;48659;41.622;2.276;2023-11-19T12:04:43;100376.46;;;22.31;32.92
62592;BME280;48659;41.622;2.276;2023-11-19T12:07:15;100371.73;;;21.49;33.22
62592;BME280;48659;41.622;2.276;2023-11-19T12:09:47;100370.05;;;21.38;32.49
62592;BME280;48659;41.622;2.276;2023-11-19T12:12:20;100363.96;;;22.01;32.22
62592;BME280;48659;41.622;2.276;2023-11-19T12:15:05;100367.99;;;21.37;33.54
62592;BME280;48659;41.622;2.276;2023-11-19T12:17:49;100362.58;;;22.27;32.90
62592;BME280;48659;41.622;2.276;2023-11-19T12:20:18;100362.20;;;19.76;33.87
62592;BME280;48659;41.622;2.276;2023-11-19T12:22:47;100354.59;;;20.24;34.58
62592;BME280;48659;41.622;2.276;2023-11-19T12:25:16;100352.22;;;18.65;35.31
62592;BME280;48659;41.622;2.276;2023-11-19T12:27:45;100352.26;;;20.31;34.26
62592;BME280;48659;41.622;2.276;2023-11-19T12:30:17;100351.08;;;21.02;33.40
62592;BME280;48659;41.622;2.276;2023-11-19T12:32:45;100347.24;;;21.17;34.12
62592;BME280;48659;41.622;2.276;2023-11-19T12:35:13;100344.10;;;19.63;34.66
62592;BME280;48659;41.622;2.276;2023-11-19T12:37:41;100344.85;;;21.02;33.19
62592;BME280;48659;41.622;2.276;2023-11-19T12:40:14;100335.10;;;21.46;31.70
62592;BME280;48659;41.622;2.276;2023-11-19T12:42:42;100331.41;;;22.84;31.16
62592;BME280;48659;41.622;2.276;2023-11-19T12:45:10;100329.86;;;22.61;31.64
62592;BME280;48659;41.622;2.276;2023-11-19T12:47:39;100325.56;;;22.48;31.80
62592;BME280;48659;41.622;2.276;2023-11-19T12:50:13;100326.05;;;21.59;32.07
62592;BME280;48659;41.622;2.276;2023-11-19T12:52:41;100326.10;;;21.54;32.82
62592;BME280;48659;41.622;2.276;2023-11-19T12:55:26;100323.06;;;20.51;33.57
62592;BME280;48659;41.622;2.276;2023-11-19T12:57:53;100312.46;;;21.93;32.11
62592;BME280;48659;41.622;2.276;2023-11-19T13:00:23;100309.30;;;22.73;30.83
62592;BME280;48659;41.622;2.276;2023-11-19T13:02:51;100308.65;;;23.00;30.81